Time;durP1;ratioP1;P1;durP2;ratioP2;P2;SDS_P1;SDS_P2;PMS_P1;PMS_P2;Temp;Humidity;BMP_temperature;BMP_pressure;BME280_temperature;BME280_humidity;BME280_pressure;Samples;Min_cycle;Max_cycle;Signal;HPM_P1;HPM_P2
2023/06/14 08:55:48;;;;;;;5.22;3.13;;;20.10;81.90;;;;;;5097075;27;21174;-66
2023/06/14 08:58:14;;;;;;;5.40;3.47;;;20.10;83.60;;;;;;5104254;27;20028;-65
2023/06/14 09:00:42;;;;;;;6.13;3.20;;;20.30;81.50;;;;;;5109188;28;20046;-65
2023/06/14 09:03:13;;;;;;;5.97;3.63;;;20.70;81.60;;;;;;5106308;27;20040;-66
2023/06/14 09:05:39;;;;;;;6.15;3.35;;;21.00;79.30;;;;;;5101374;28;20038;-66
2023/06/14 09:08:05;;;;;;;4.53;3.38;;;21.30;77.60;;;;;;5108967;27;20038;-66
2023/06/14 09:10:37;;;;;;;4.10;2.95;;;21.60;77.40;;;;;;5104529;28;20649;-65
2023/06/14 09:13:03;;;;;;;4.47;3.22;;;21.70;77.60;;;;;;5108436;27;20620;-66
2023/06/14 09:15:32;;;;;;;8.77;3.60;;;21.90;75.60;;;;;;5107277;28;20080;-66
2023/06/14 09:18:00;;;;;;;7.63;3.30;;;22.10;75.80;;;;;;5108127;27;20035;-66
2023/06/14 09:20:26;;;;;;;6.85;3.28;;;22.30;72.60;;;;;;5106710;28;20088;-66
2023/06/14 09:22:53;;;;;;;9.43;3.85;;;22.40;71.20;;;;;;5107601;27;20031;-66
2023/06/14 09:25:19;;;;;;;4.80;3.38;;;22.50;69.60;;;;;;5105994;28;20099;-66
2023/06/14 09:27:47;;;;;;;5.70;2.45;;;22.50;70.40;;;;;;5106950;28;20500;-66
2023/06/14 09:30:13;;;;;;;4.40;2.60;;;22.70;70.20;;;;;;5104031;27;20087;-66
2023/06/14 09:32:39;;;;;;;7.40;3.22;;;22.90;69.60;;;;;;5107590;28;20027;-66
2023/06/14 09:35:09;;;;;;;7.63;3.20;;;23.00;68.30;;;;;;5106402;27;20036;-66
2023/06/14 09:37:37;;;;;;;9.13;2.83;;;23.10;65.60;;;;;;5101495;28;20023;-66
2023/06/14 09:40:04;;;;;;;4.50;2.75;;;23.20;65.10;;;;;;5108991;28;20031;-66
2023/06/14 09:42:29;;;;;;;9.27;3.42;;;23.30;65.80;;;;;;5105261;28;20032;-64
2023/06/14 09:44:56;;;;;;;8.73;3.25;;;23.40;66.20;;;;;;5109338;28;20035;-65
2023/06/14 09:47:23;;;;;;;3.75;2.75;;;23.50;64.80;;;;;;5107061;27;20102;-66
2023/06/14 09:49:50;;;;;;;5.95;3.17;;;23.50;64.70;;;;;;5110510;28;20035;-66
2023/06/14 09:52:20;;;;;;;8.18;3.20;;;23.40;62.50;;;;;;5106907;27;20055;-65
2023/06/14 09:54:48;;;;;;;4.80;2.65;;;23.30;64.20;;;;;;5103464;28;20654;-65
2023/06/14 15:07:09;;;;;;;3.85;2.63;;;23.60;50.40;;;;;;5082594;27;20403;-65
2023/06/14 15:09:36;;;;;;;5.10;3.03;;;23.60;51.20;;;;;;5072775;28;20029;-65
2023/06/14 15:12:02;;;;;;;3.97;2.47;;;23.70;50.40;;;;;;5072748;28;20140;-65
2023/06/14 15:14:28;;;;;;;5.28;2.45;;;23.80;49.50;;;;;;5069966;28;20136;-66
2023/06/14 15:16:54;;;;;;;4.95;2.70;;;24.00;49.60;;;;;;5070669;28;20020;-65
2023/06/14 15:19:20;;;;;;;6.80;2.40;;;24.10;49.60;;;;;;5073603;28;20024;-66
2023/06/14 15:21:46;;;;;;;5.15;2.45;;;24.10;49.00;;;;;;5076193;28;20024;-66
2023/06/14 15:24:12;;;;;;;4.72;2.38;;;24.10;49.10;;;;;;5074142;28;20127;-65
2023/06/14 15:26:38;;;;;;;5.90;2.40;;;24.00;48.80;;;;;;5076314;28;20032;-66
2023/06/14 15:29:04;;;;;;;3.08;2.53;;;24.00;48.90;;;;;;5070330;28;20537;-66
2023/06/14 15:31:30;;;;;;;5.15;2.38;;;24.00;49.80;;;;;;5071392;28;20032;-65
2023/06/14 15:33:55;;;;;;;8.85;2.17;;;24.00;49.50;;;;;;5069794;28;20027;-65
2023/06/14 15:36:21;;;;;;;7.07;2.50;;;24.00;49.70;;;;;;5072889;28;20571;-65
2023/06/14 15:38:47;;;;;;;3.95;2.45;;;24.00;49.70;;;;;;5076200;28;20085;-66
2023/06/14 15:41:13;;;;;;;3.80;2.42;;;23.90;49.80;;;;;;5074043;28;20043;-66
2023/06/14 15:43:38;;;;;;;3.78;2.45;;;23.90;49.60;;;;;;5071692;28;20911;-65
2023/06/14 15:46:04;;;;;;;6.55;2.38;;;23.90;50.20;;;;;;5070549;28;20547;-66
2023/06/14 15:48:30;;;;;;;5.10;2.70;;;23.80;49.50;;;;;;5074047;28;20055;-66
2023/06/14 15:50:56;;;;;;;5.20;2.60;;;23.70;49.40;;;;;;5068643;28;20032;-64
2023/06/14 15:53:21;;;;;;;3.97;2.15;;;23.70;50.00;;;;;;5066847;28;20169;-65
2023/06/14 15:55:47;;;;;;;8.27;2.50;;;23.70;49.60;;;;;;5076265;28;20523;-65
2023/06/14 15:58:13;;;;;;;3.53;2.33;;;23.70;49.80;;;;;;5073711;28;20037;-65
2023/06/14 16:00:39;;;;;;;7.45;2.60;;;23.60;49.90;;;;;;5076359;28;20083;-65
2023/06/14 16:03:05;;;;;;;6.28;2.40;;;23.60;50.10;;;;;;5075213;28;20085;-67
2023/06/14 16:05:30;;;;;;;3.20;2.40;;;23.60;49.70;;;;;;5076447;28;20028;-66
2023/06/14 16:07:56;;;;;;;6.85;2.50;;;23.60;49.10;;;;;;5078275;28;20050;-66
2023/06/14 16:10:22;;;;;;;10.27;2.42;;;23.50;49.00;;;;;;5077874;28;20042;-65
2023/06/14 16:12:48;;;;;;;5.43;2.50;;;23.60;49.30;;;;;;5077219;28;20039;-66
2023/06/14 16:15:14;;;;;;;4.63;2.70;;;23.40;50.00;;;;;;5077927;28;20029;-65
2023/06/14 16:17:42;;;;;;;7.40;2.38;;;23.50;50.20;;;;;;5068785;28;20029;-66
2023/06/14 16:20:09;;;;;;;3.92;2.40;;;23.50;49.90;;;;;;5063952;28;20126;-66
2023/06/14 16:22:36;;;;;;;5.15;2.45;;;23.50;50.00;;;;;;5063187;28;20071;-66
2023/06/14 16:25:02;;;;;;;3.75;2.60;;;23.50;50.30;;;;;;5062240;28;20051;-66
2023/06/14 16:27:28;;;;;;;8.48;2.47;;;23.50;49.70;;;;;;5059832;28;20059;-66
2023/06/14 16:29:53;;;;;;;6.85;2.38;;;23.50;49.60;;;;;;5059552;28;20437;-66
2023/06/14 16:32:20;;;;;;;7.75;2.53;;;23.60;49.30;;;;;;5062769;28;20041;-66
2023/06/14 16:34:45;;;;;;;3.30;2.40;;;23.70;49.30;;;;;;5061293;28;20025;-66
2023/06/14 16:37:11;;;;;;;5.28;2.45;;;23.70;49.30;;;;;;5062769;28;20477;-66
2023/06/14 16:39:37;;;;;;;2.95;2.10;;;23.70;49.20;;;;;;5060517;28;20089;-66
2023/06/14 16:42:03;;;;;;;4.60;2.90;;;23.70;49.70;;;;;;5062227;28;20583;-66
2023/06/14 16:44:29;;;;;;;4.47;2.50;;;23.80;50.10;;;;;;5062845;28;20036;-66
2023/06/14 16:46:55;;;;;;;11.05;2.35;;;23.70;49.40;;;;;;5062143;28;20040;-66
2023/06/14 16:49:22;;;;;;;3.95;2.45;;;23.70;48.40;;;;;;5061634;28;20102;-66
2023/06/14 16:51:48;;;;;;;4.22;2.10;;;23.70;49.20;;;;;;5062783;28;20824;-66
2023/06/14 16:54:13;;;;;;;5.63;2.10;;;23.70;50.30;;;;;;5062553;28;20081;-66
2023/06/14 16:56:39;;;;;;;4.43;2.53;;;23.70;50.30;;;;;;5062473;28;20036;-66
2023/06/14 16:59:05;;;;;;;4.45;2.38;;;23.70;50.30;;;;;;5062565;28;20048;-66
2023/06/14 17:01:32;;;;;;;3.83;2.40;;;23.70;49.20;;;;;;5062540;28;20027;-65
2023/06/14 17:03:58;;;;;;;3.83;1.83;;;23.70;50.20;;;;;;5063036;28;20041;-64
2023/06/14 17:06:24;;;;;;;4.85;2.25;;;23.80;49.30;;;;;;5061333;28;20044;-64
2023/06/14 17:08:50;;;;;;;3.20;2.25;;;23.80;49.10;;;;;;5060654;28;20032;-64
2023/06/14 17:11:18;;;;;;;2.67;1.95;;;23.80;49.10;;;;;;5058180;28;20037;-64
2023/06/14 17:13:44;;;;;;;3.58;2.45;;;23.70;50.00;;;;;;5058540;28;20566;-64
2023/06/14 17:16:12;;;;;;;6.55;2.20;;;23.70;50.30;;;;;;5054461;28;20800;-64
2023/06/14 17:18:37;;;;;;;4.90;2.13;;;23.70;49.60;;;;;;5055487;28;20032;-64
2023/06/14 17:21:03;;;;;;;4.30;2.28;;;23.70;49.40;;;;;;5054545;28;20673;-64
2023/06/14 17:23:29;;;;;;;5.78;2.45;;;23.70;49.40;;;;;;5056995;28;20032;-64
2023/06/14 17:25:55;;;;;;;4.53;2.20;;;23.60;49.40;;;;;;5060961;28;20049;-64
2023/06/14 17:28:21;;;;;;;5.25;2.13;;;23.60;50.30;;;;;;5056868;28;20124;-64
2023/06/14 17:30:47;;;;;;;3.60;1.95;;;23.60;50.50;;;;;;5059234;28;20035;-65
2023/06/14 17:33:13;;;;;;;2.63;2.05;;;23.60;50.60;;;;;;5058326;28;20025;-64
2023/06/14 17:35:39;;;;;;;4.60;1.98;;;23.50;50.60;;;;;;5056182;28;20055;-64
2023/06/14 17:38:05;;;;;;;4.60;2.47;;;23.50;50.80;;;;;;5055040;28;20043;-64
2023/06/14 17:40:31;;;;;;;3.20;2.00;;;23.50;51.00;;;;;;5057081;28;20025;-63
2023/06/14 17:42:58;;;;;;;3.88;2.25;;;23.50;50.60;;;;;;5060550;28;20059;-64
2023/06/14 17:45:24;;;;;;;2.47;1.80;;;23.50;50.90;;;;;;5060696;28;20055;-64
2023/06/14 17:47:50;;;;;;;7.72;2.28;;;23.40;51.30;;;;;;5059548;28;20028;-65
2023/06/14 17:50:16;;;;;;;3.92;2.05;;;23.40;52.00;;;;;;5061525;28;20025;-66
2023/06/14 17:52:42;;;;;;;6.80;2.60;;;23.40;51.60;;;;;;5064881;28;20404;-66
2023/06/14 17:55:08;;;;;;;3.10;2.13;;;23.30;51.90;;;;;;5053760;28;20047;-63
2023/06/14 17:57:34;;;;;;;3.83;2.20;;;23.30;51.40;;;;;;5052684;28;20162;-63
2023/06/14 18:00:00;;;;;;;4.15;1.98;;;23.30;51.70;;;;;;5060448;28;20119;-64
2023/06/14 18:02:25;;;;;;;5.28;2.38;;;23.20;52.00;;;;;;5058090;28;20689;-65
2023/06/14 18:04:52;;;;;;;4.28;1.95;;;23.20;50.60;;;;;;5060666;28;20036;-66
2023/06/14 18:07:25;;;;;;;3.25;2.28;;;23.10;50.80;;;;;;5053862;28;20036;-63
2023/06/14 18:09:53;;;;;;;12.00;3.95;;;23.10;50.40;;;;;;5054039;28;20016;-63
2023/06/14 18:12:18;;;;;;;6.13;2.53;;;23.10;54.30;;;;;;5052013;28;20043;-64
2023/06/14 18:14:44;;;;;;;8.52;2.70;;;23.10;52.60;;;;;;5052199;28;20036;-64
2023/06/14 18:17:10;;;;;;;4.18;2.22;;;23.00;54.00;;;;;;5054746;28;20046;-64
2023/06/14 18:19:37;;;;;;;3.95;2.45;;;23.00;54.30;;;;;;5057866;28;20028;-64
2023/06/14 18:22:05;;;;;;;4.72;2.25;;;22.90;57.00;;;;;;5058418;28;20124;-64
2023/06/14 18:24:30;;;;;;;4.82;2.50;;;22.90;54.80;;;;;;5058087;28;20024;-64
2023/06/14 18:26:56;;;;;;;4.40;2.20;;;22.80;57.00;;;;;;5053081;28;20034;-63
2023/06/14 18:29:22;;;;;;;8.25;2.45;;;22.70;58.10;;;;;;5052896;28;20039;-64
2023/06/14 18:31:48;;;;;;;3.63;2.20;;;22.60;57.50;;;;;;5052294;28;20804;-64
2023/06/14 18:34:14;;;;;;;4.28;2.60;;;22.60;58.70;;;;;;5052316;28;20086;-64
2023/06/14 18:36:40;;;;;;;5.35;2.60;;;22.50;55.10;;;;;;5058238;28;20043;-64
2023/06/14 18:39:06;;;;;;;3.40;2.10;;;22.50;53.30;;;;;;5055563;28;20614;-64
2023/06/14 18:41:32;;;;;;;4.28;2.25;;;22.40;54.80;;;;;;5054526;28;20040;-63
2023/06/14 18:43:59;;;;;;;6.75;2.70;;;22.40;56.80;;;;;;5055481;28;20475;-65
2023/06/14 18:46:26;;;;;;;4.20;2.28;;;22.40;57.60;;;;;;5059693;28;20055;-64
2023/06/14 18:48:52;;;;;;;4.05;2.20;;;22.30;54.00;;;;;;5059306;28;20381;-65
2023/06/14 18:51:17;;;;;;;2.80;2.15;;;22.30;54.20;;;;;;5059842;28;20036;-67
2023/06/14 18:53:43;;;;;;;4.10;2.15;;;22.30;56.90;;;;;;5058678;28;20104;-65
2023/06/14 18:56:09;;;;;;;3.67;2.13;;;22.30;59.90;;;;;;5059061;28;20109;-65
2023/06/14 18:58:35;;;;;;;3.50;2.13;;;22.20;62.30;;;;;;5059904;28;20064;-64
2023/06/14 19:01:01;;;;;;;6.78;2.40;;;22.20;62.30;;;;;;5060116;28;20143;-65
2023/06/14 19:03:27;;;;;;;4.32;2.45;;;22.10;62.20;;;;;;5059708;28;20035;-65
2023/06/14 19:05:57;;;;;;;5.13;2.30;;;22.00;61.20;;;;;;5056777;28;20389;-63
2023/06/14 19:08:23;;;;;;;2.30;2.08;;;22.00;61.70;;;;;;5055609;28;20816;-64
2023/06/14 19:10:50;;;;;;;2.40;2.03;;;21.90;61.70;;;;;;5060189;28;20567;-65
2023/06/14 19:13:17;;;;;;;3.70;2.35;;;21.90;62.40;;;;;;5053768;28;20024;-65
2023/06/14 19:15:42;;;;;;;2.13;1.92;;;21.80;63.20;;;;;;5058933;28;20432;-65
2023/06/14 19:18:10;;;;;;;4.47;2.42;;;21.80;63.90;;;;;;5060353;28;20119;-66
2023/06/14 19:20:36;;;;;;;4.95;2.40;;;21.70;64.60;;;;;;5060265;28;20465;-65
2023/06/14 19:23:03;;;;;;;4.55;2.30;;;21.70;63.40;;;;;;5059587;28;20051;-65
2023/06/14 19:25:29;;;;;;;5.22;2.40;;;21.60;63.80;;;;;;5054856;28;20242;-64
2023/06/14 19:27:55;;;;;;;2.22;1.95;;;21.60;64.90;;;;;;5054216;28;20117;-64
2023/06/14 19:30:21;;;;;;;4.20;2.00;;;21.50;63.90;;;;;;5057068;28;20155;-63
2023/06/14 19:32:49;;;;;;;3.72;2.20;;;21.40;64.70;;;;;;5056025;28;20025;-64
2023/06/14 19:35:19;;;;;;;5.63;2.50;;;21.40;64.00;;;;;;5053708;28;21030;-65
2023/06/14 19:37:46;;;;;;;4.68;2.63;;;21.40;63.40;;;;;;5053828;28;20500;-64
2023/06/14 19:40:13;;;;;;;4.65;2.58;;;21.40;63.60;;;;;;5050371;28;20032;-64
2023/06/14 19:42:39;;;;;;;2.70;2.17;;;21.30;63.60;;;;;;5056616;28;20032;-65
2023/06/14 19:45:07;;;;;;;2.58;2.38;;;21.30;63.30;;;;;;5059450;28;20032;-65
2023/06/14 19:47:33;;;;;;;3.08;2.40;;;21.30;63.80;;;;;;5051481;28;20094;-66
2023/06/14 19:49:59;;;;;;;3.78;2.30;;;21.30;65.50;;;;;;5059915;28;20308;-65
2023/06/14 19:52:25;;;;;;;4.38;2.22;;;21.20;63.30;;;;;;5060592;28;20040;-65
2023/06/14 19:54:51;;;;;;;4.53;2.17;;;21.20;63.90;;;;;;5063558;28;20031;-65
2023/06/14 19:57:17;;;;;;;3.53;2.33;;;21.10;64.60;;;;;;5063507;28;20036;-64
2023/06/14 19:59:43;;;;;;;3.70;2.42;;;21.10;65.40;;;;;;5060308;28;20091;-64
2023/06/14 20:02:10;;;;;;;4.60;2.60;;;21.10;65.80;;;;;;5056445;28;20062;-64
2023/06/14 20:04:36;;;;;;;4.68;2.38;;;21.00;65.40;;;;;;5064045;28;20540;-65
2023/06/14 20:07:06;;;;;;;3.70;2.30;;;21.00;65.20;;;;;;5062342;28;20123;-64
2023/06/14 20:09:33;;;;;;;4.45;2.25;;;20.90;65.00;;;;;;5062885;28;20035;-64
2023/06/14 20:11:59;;;;;;;4.32;2.17;;;20.90;65.60;;;;;;5060350;28;20028;-63
2023/06/14 20:14:25;;;;;;;4.68;2.67;;;20.90;66.10;;;;;;5056860;28;20033;-63
2023/06/14 20:16:51;;;;;;;4.03;2.47;;;20.90;65.70;;;;;;5058237;28;20070;-63
2023/06/14 20:19:18;;;;;;;2.58;2.25;;;20.90;65.40;;;;;;5054534;28;20833;-63
2023/06/14 20:21:44;;;;;;;3.67;2.42;;;20.80;66.30;;;;;;5062702;28;20033;-65
2023/06/14 20:24:10;;;;;;;2.97;2.30;;;20.80;66.00;;;;;;5059661;28;20056;-62
2023/06/14 20:26:35;;;;;;;3.70;2.40;;;20.80;65.70;;;;;;5059706;28;20036;-63
2023/06/14 20:29:01;;;;;;;10.13;2.97;;;20.70;66.00;;;;;;5057419;28;20111;-62
2023/06/14 20:31:27;;;;;;;3.97;2.72;;;20.70;65.20;;;;;;5056168;28;20037;-63
2023/06/14 20:33:53;;;;;;;5.32;2.30;;;20.70;65.60;;;;;;5057659;28;20106;-63
2023/06/14 20:36:19;;;;;;;3.42;2.20;;;20.60;66.40;;;;;;5051962;28;20037;-63
2023/06/14 20:38:45;;;;;;;3.40;2.40;;;20.60;66.80;;;;;;5058136;28;20036;-63
2023/06/14 20:41:11;;;;;;;4.70;2.05;;;20.60;66.70;;;;;;5060887;28;20036;-63
2023/06/14 20:43:36;;;;;;;4.20;2.30;;;20.60;66.90;;;;;;5060250;28;20033;-62
2023/06/14 20:46:06;;;;;;;8.85;2.55;;;20.60;67.00;;;;;;5057300;28;20044;-63
2023/06/14 20:48:33;;;;;;;2.95;2.45;;;20.60;67.70;;;;;;5056662;28;20040;-63
2023/06/14 20:50:58;;;;;;;3.60;2.63;;;20.50;67.50;;;;;;5055906;28;20045;-63
2023/06/14 20:53:24;;;;;;;6.88;2.40;;;20.50;65.80;;;;;;5052953;28;20044;-62
2023/06/14 20:55:50;;;;;;;4.18;2.50;;;20.50;66.70;;;;;;5054096;28;20074;-63
2023/06/14 20:58:16;;;;;;;4.47;2.35;;;20.50;66.30;;;;;;5059471;28;20038;-63
2023/06/14 21:00:44;;;;;;;3.92;2.40;;;20.40;66.50;;;;;;5059997;28;20558;-63
2023/06/14 21:03:13;;;;;;;4.97;2.40;;;20.50;66.70;;;;;;5059566;28;20043;-63
2023/06/14 21:05:41;;;;;;;4.25;2.25;;;20.40;66.30;;;;;;5060596;28;20127;-63
2023/06/14 21:08:07;;;;;;;3.75;2.45;;;20.40;66.30;;;;;;5055886;28;20037;-63
2023/06/14 21:10:33;;;;;;;4.43;2.90;;;20.40;66.70;;;;;;5059024;28;20028;-63
2023/06/14 21:12:59;;;;;;;8.38;2.53;;;20.40;66.60;;;;;;5060544;28;20042;-63
2023/06/14 21:15:25;;;;;;;3.20;2.42;;;20.40;66.90;;;;;;5063888;28;20109;-65
2023/06/14 21:17:55;;;;;;;5.70;2.70;;;20.40;66.60;;;;;;5063469;28;20032;-63
2023/06/14 21:20:22;;;;;;;4.65;2.50;;;20.30;66.60;;;;;;5061599;28;20041;-63
2023/06/14 21:22:48;;;;;;;3.95;2.58;;;20.30;66.70;;;;;;5057597;28;20051;-63
2023/06/14 21:25:15;;;;;;;3.30;2.45;;;20.30;66.50;;;;;;5053816;28;20040;-63
2023/06/14 21:27:41;;;;;;;3.10;2.33;;;20.30;66.70;;;;;;5054813;28;20728;-63
2023/06/14 21:30:07;;;;;;;6.88;2.55;;;20.20;66.90;;;;;;5049911;28;20119;-62
2023/06/14 21:32:34;;;;;;;3.20;2.60;;;20.20;66.60;;;;;;5060237;28;20032;-63
2023/06/14 21:35:01;;;;;;;5.15;2.53;;;20.20;66.00;;;;;;5056278;28;20033;-63
2023/06/14 21:37:27;;;;;;;5.70;2.40;;;20.20;66.10;;;;;;5056890;28;20033;-62
2023/06/14 21:39:52;;;;;;;3.28;2.25;;;20.10;66.60;;;;;;5056707;28;20083;-63
2023/06/14 21:42:18;;;;;;;3.58;2.40;;;20.10;67.00;;;;;;5055892;28;20037;-63
2023/06/14 21:44:45;;;;;;;3.10;2.20;;;20.10;67.10;;;;;;5057661;28;20028;-63
2023/06/14 21:47:12;;;;;;;3.17;2.30;;;20.10;67.00;;;;;;5050037;28;20033;-63
2023/06/14 21:49:39;;;;;;;4.40;2.38;;;20.10;67.20;;;;;;5054748;28;20408;-63
2023/06/14 21:52:07;;;;;;;4.43;2.83;;;20.00;67.50;;;;;;5058218;28;20032;-63
2023/06/14 21:54:32;;;;;;;2.65;2.38;;;20.00;67.60;;;;;;5057869;28;20032;-63
2023/06/14 21:56:58;;;;;;;6.97;2.72;;;20.00;67.20;;;;;;5056184;28;20041;-62
2023/06/14 21:59:24;;;;;;;6.32;2.42;;;20.00;67.60;;;;;;5053936;28;20091;-62
2023/06/14 22:01:50;;;;;;;4.78;2.58;;;20.00;67.40;;;;;;5053989;28;20036;-62
2023/06/14 22:04:16;;;;;;;3.53;2.40;;;19.90;67.90;;;;;;5051872;28;20033;-62
2023/06/14 22:06:44;;;;;;;4.55;2.40;;;19.90;67.20;;;;;;5053161;28;20531;-63
2023/06/14 22:09:14;;;;;;;4.80;2.42;;;19.90;67.30;;;;;;5058295;28;20757;-62
2023/06/14 22:11:42;;;;;;;4.30;2.60;;;19.90;67.40;;;;;;5057932;28;20024;-63
2023/06/14 22:14:11;;;;;;;3.15;2.20;;;19.80;67.50;;;;;;5053154;28;20033;-62
2023/06/14 22:16:38;;;;;;;4.18;2.50;;;19.80;68.40;;;;;;5055130;28;20107;-63
2023/06/14 22:19:05;;;;;;;3.92;2.65;;;19.80;67.70;;;;;;5054611;28;20119;-64
2023/06/14 22:21:35;;;;;;;2.45;2.22;;;19.70;68.00;;;;;;5054005;28;20055;-62
2023/06/14 22:24:01;;;;;;;4.97;2.30;;;19.70;67.90;;;;;;5060156;28;20039;-63
2023/06/14 22:26:33;;;;;;;3.53;2.40;;;19.70;67.80;;;;;;5059897;28;20037;-63
2023/06/14 22:29:05;;;;;;;3.45;2.22;;;19.70;67.20;;;;;;5041273;28;20028;-65
2023/06/14 22:31:36;;;;;;;3.45;2.35;;;19.70;67.60;;;;;;5061151;28;20028;-65
2023/06/14 22:34:03;;;;;;;3.60;2.30;;;19.70;66.60;;;;;;5058931;28;20061;-64
2023/06/14 22:36:29;;;;;;;3.25;2.00;;;19.60;67.20;;;;;;5059400;28;20039;-65
2023/06/14 22:38:56;;;;;;;5.68;2.50;;;19.60;67.30;;;;;;5059556;28;20031;-64
2023/06/14 22:41:26;;;;;;;3.88;2.92;;;19.50;67.60;;;;;;5060311;28;20037;-65
2023/06/14 22:43:52;;;;;;;2.55;2.15;;;19.50;68.00;;;;;;5060108;28;20036;-67
2023/06/14 22:46:22;;;;;;;5.60;2.78;;;19.50;67.80;;;;;;5060536;28;20043;-64
2023/06/14 22:48:52;;;;;;;6.13;2.63;;;19.40;67.50;;;;;;5060378;28;20821;-65
2023/06/14 22:51:20;;;;;;;7.53;2.25;;;19.40;67.10;;;;;;5060565;28;20596;-65
2023/06/14 22:53:47;;;;;;;5.55;2.28;;;19.40;67.80;;;;;;5060894;28;20037;-64
2023/06/14 22:56:15;;;;;;;4.18;2.28;;;19.30;67.50;;;;;;5060337;28;20032;-65
2023/06/14 22:58:43;;;;;;;4.72;2.75;;;19.40;68.20;;;;;;5056132;28;20558;-65
2023/06/14 23:01:15;;;;;;;4.68;2.50;;;19.30;68.10;;;;;;5060524;28;20028;-65
2023/06/14 23:03:43;;;;;;;3.97;2.35;;;19.30;68.00;;;;;;5058108;28;20114;-65
2023/06/14 23:06:10;;;;;;;6.32;2.60;;;19.30;67.50;;;;;;5056144;28;20425;-64
2023/06/14 23:08:43;;;;;;;2.97;1.90;;;19.20;67.90;;;;;;5060659;28;20039;-65
2023/06/14 23:11:16;;;;;;;4.43;2.45;;;19.20;68.10;;;;;;5056241;28;20808;-65
2023/06/14 23:13:50;;;;;;;3.03;2.45;;;19.10;68.00;;;;;;5059559;28;20040;-65
2023/06/14 23:16:19;;;;;;;4.65;2.60;;;19.10;68.40;;;;;;5058491;28;20051;-65
2023/06/14 23:18:46;;;;;;;3.88;2.60;;;19.00;68.70;;;;;;5060605;28;20032;-65
2023/06/14 23:21:13;;;;;;;7.15;2.67;;;18.90;68.80;;;;;;5054793;28;20036;-64
2023/06/14 23:23:39;;;;;;;2.67;2.33;;;18.90;69.30;;;;;;5060597;28;20047;-65
2023/06/14 23:26:08;;;;;;;4.57;2.35;;;18.80;69.30;;;;;;5060559;28;20082;-65
2023/06/14 23:28:34;;;;;;;3.90;2.50;;;18.70;69.20;;;;;;5062365;28;20450;-65
2023/06/14 23:31:02;;;;;;;3.75;2.42;;;18.70;69.30;;;;;;5064509;28;20082;-65
2023/06/14 23:33:29;;;;;;;4.07;2.08;;;18.60;69.30;;;;;;5064827;28;20108;-65
2023/06/14 23:35:57;;;;;;;6.82;2.60;;;18.60;69.60;;;;;;5064344;28;20090;-65
2023/06/14 23:38:29;;;;;;;5.90;2.60;;;18.50;69.70;;;;;;5063782;28;20040;-65
2023/06/14 23:40:57;;;;;;;5.07;2.17;;;18.50;69.70;;;;;;5064101;28;20036;-64
2023/06/14 23:43:24;;;;;;;4.15;2.10;;;18.40;69.90;;;;;;5064252;28;20069;-65
2023/06/14 23:45:55;;;;;;;4.30;2.50;;;18.30;70.00;;;;;;5063981;28;20056;-64
2023/06/14 23:48:25;;;;;;;4.13;2.25;;;18.30;70.20;;;;;;5063554;28;20107;-67
2023/06/14 23:50:54;;;;;;;3.40;2.30;;;18.30;70.40;;;;;;5064635;28;20032;-65
2023/06/14 23:53:24;;;;;;;8.77;2.65;;;18.20;70.30;;;;;;5063789;28;20036;-65
2023/06/14 23:55:52;;;;;;;3.53;2.22;;;18.20;70.60;;;;;;5063066;28;20040;-68
2023/06/14 23:58:23;;;;;;;5.50;2.58;;;18.20;70.80;;;;;;5062894;28;20463;-65
